Time;durP1;ratioP1;P1;durP2;ratioP2;P2;SDS_P1;SDS_P2;PMS_P1;PMS_P2;Temp;Humidity;BMP_temperature;BMP_pressure;BME280_temperature;BME280_humidity;BME280_pressure;Samples;Min_cycle;Max_cycle;Signal;HPM_P1;HPM_P2
2021/05/25 00:02:21;;;;;;;10.68;8.25;;;15.70;99.90;;;;;;4993987;28;20926;-79
2021/05/25 00:04:48;;;;;;;13.75;9.05;;;15.80;99.90;;;;;;4993113;28;20117;-76
2021/05/25 00:07:16;;;;;;;12.18;9.90;;;16.10;99.90;;;;;;5014745;28;20026;-76
2021/05/25 00:09:43;;;;;;;11.57;9.20;;;16.00;99.90;;;;;;4998628;28;20022;-76
2021/05/25 00:12:11;;;;;;;12.45;8.60;;;16.00;99.90;;;;;;4997251;28;20542;-76
2021/05/25 00:14:38;;;;;;;12.43;9.07;;;16.00;99.90;;;;;;4997659;28;20046;-78
2021/05/25 00:17:07;;;;;;;11.32;8.45;;;16.00;99.90;;;;;;5000145;28;20037;-80
2021/05/25 00:19:37;;;;;;;14.13;9.00;;;16.10;99.90;;;;;;4997390;28;20118;-81
2021/05/25 00:22:04;;;;;;;11.20;9.15;;;16.40;99.90;;;;;;4989101;28;20051;-79
2021/05/25 00:24:33;;;;;;;10.23;8.05;;;17.00;99.90;;;;;;4998142;28;20371;-80
2021/05/25 00:27:00;;;;;;;8.13;7.00;;;17.80;99.90;;;;;;4997085;28;20042;-84
2021/05/25 00:29:28;;;;;;;9.35;6.75;;;19.00;98.90;;;;;;4996657;28;20034;-79
2021/05/25 00:31:55;;;;;;;11.07;7.13;;;19.80;96.50;;;;;;4997801;28;20041;-77
2021/05/25 00:34:23;;;;;;;8.75;6.70;;;20.30;94.90;;;;;;4995469;28;20405;-75
2021/05/25 00:36:50;;;;;;;7.85;6.35;;;21.10;95.50;;;;;;4998920;28;20112;-76
2021/05/25 00:39:18;;;;;;;7.30;6.35;;;21.70;94.00;;;;;;5005324;28;20032;-75
2021/05/25 00:41:45;;;;;;;7.65;6.85;;;22.30;93.10;;;;;;5000409;28;20030;-78
2021/05/25 00:44:12;;;;;;;7.70;6.88;;;22.60;91.50;;;;;;5001448;28;20424;-76
2021/05/25 00:46:41;;;;;;;8.80;7.03;;;22.70;90.70;;;;;;4993597;28;20030;-77
2021/05/25 00:49:09;;;;;;;10.00;7.18;;;22.50;90.80;;;;;;5000137;28;20071;-71
2021/05/25 00:51:38;;;;;;;8.00;6.53;;;22.70;90.60;;;;;;4998570;28;20497;-72
2021/05/25 00:54:06;;;;;;;9.75;6.15;;;23.50;90.50;;;;;;4996370;28;20063;-71
2021/05/25 00:56:34;;;;;;;5.78;4.57;;;23.90;86.10;;;;;;5000728;28;20057;-70
2021/05/25 00:59:02;;;;;;;9.20;6.60;;;24.20;85.30;;;;;;4987910;28;20042;-71
2021/05/25 01:01:30;;;;;;;8.52;5.78;;;24.40;86.40;;;;;;4993660;28;20022;-71
2021/05/25 01:03:58;;;;;;;5.22;4.35;;;25.10;84.00;;;;;;4996744;28;20030;-73
2021/05/25 01:06:28;;;;;;;4.45;3.75;;;24.70;83.50;;;;;;4997031;28;20497;-71
2021/05/25 01:08:59;;;;;;;5.00;3.53;;;24.70;82.90;;;;;;4995864;28;20030;-71
2021/05/25 01:11:34;;;;;;;4.85;4.22;;;24.90;82.50;;;;;;5000638;28;20030;-71
2021/05/25 01:14:03;;;;;;;5.55;4.05;;;25.30;80.20;;;;;;5002596;28;20468;-71
2021/05/25 01:16:31;;;;;;;3.90;3.20;;;25.00;80.10;;;;;;4999166;28;20041;-71
2021/05/25 01:18:59;;;;;;;4.32;3.35;;;25.10;80.20;;;;;;4999618;28;20524;-72
2021/05/25 01:21:28;;;;;;;4.55;3.47;;;25.30;78.90;;;;;;5000610;28;20068;-71
2021/05/25 01:23:56;;;;;;;4.20;2.72;;;25.50;79.20;;;;;;5000902;28;20053;-71
2021/05/25 01:26:24;;;;;;;4.05;1.98;;;25.70;77.50;;;;;;4990669;28;20034;-71
2021/05/25 01:28:51;;;;;;;2.28;1.60;;;25.40;76.90;;;;;;4991968;28;20034;-71
2021/05/25 01:31:19;;;;;;;4.32;1.67;;;25.50;78.80;;;;;;5000984;28;20064;-70
2021/05/25 01:33:47;;;;;;;3.75;1.60;;;25.50;76.10;;;;;;4998170;28;20037;-72
2021/05/25 01:36:16;;;;;;;6.97;2.05;;;25.40;75.90;;;;;;4996065;28;20030;-70
2021/05/25 01:38:43;;;;;;;2.00;1.00;;;25.50;75.10;;;;;;4995943;28;20034;-72
2021/05/25 01:41:11;;;;;;;2.72;0.80;;;25.60;73.80;;;;;;4996425;28;20381;-73
2021/05/25 01:43:39;;;;;;;1.50;0.73;;;25.10;74.30;;;;;;5001803;28;20038;-72
2021/05/25 01:46:07;;;;;;;3.00;0.70;;;24.80;74.30;;;;;;4994352;28;20045;-72
2021/05/25 01:48:34;;;;;;;1.20;0.77;;;24.90;75.60;;;;;;4997758;28;20379;-72
2021/05/25 01:51:02;;;;;;;2.75;0.70;;;25.20;73.80;;;;;;4994526;28;20047;-73
2021/05/25 01:53:31;;;;;;;2.90;1.45;;;25.30;73.70;;;;;;4996378;28;20085;-74
2021/05/25 01:56:00;;;;;;;4.18;0.60;;;25.00;73.80;;;;;;4993624;28;20088;-74
2021/05/25 01:58:33;;;;;;;1.38;0.82;;;24.90;73.60;;;;;;4993117;28;20734;-73
2021/05/25 02:01:06;;;;;;;2.28;0.70;;;24.70;71.90;;;;;;4997079;28;20026;-75
2021/05/25 02:03:36;;;;;;;0.95;0.30;;;25.00;74.30;;;;;;4995275;28;20030;-73
2021/05/25 02:06:05;;;;;;;0.40;0.40;;;25.00;73.90;;;;;;4989377;28;20034;-74
2021/05/25 02:08:33;;;;;;;2.95;0.40;;;24.90;73.30;;;;;;4997571;28;20061;-73
2021/05/25 02:11:02;;;;;;;3.70;0.55;;;24.80;74.40;;;;;;4996343;28;20435;-74
2021/05/25 02:13:35;;;;;;;2.63;0.82;;;24.60;74.00;;;;;;4999635;28;20069;-73
2021/05/25 02:16:07;;;;;;;2.10;1.00;;;24.90;76.00;;;;;;4993601;28;21179;-73
2021/05/25 02:18:42;;;;;;;1.40;0.50;;;24.90;75.00;;;;;;4994941;28;20040;-76
2021/05/25 02:21:11;;;;;;;1.90;0.80;;;25.00;73.20;;;;;;4987745;28;20473;-73
2021/05/25 02:23:39;;;;;;;3.55;0.90;;;24.50;74.80;;;;;;4994209;28;22728;-74
2021/05/25 02:26:06;;;;;;;0.95;0.43;;;24.70;75.60;;;;;;4990115;28;20034;-75
2021/05/25 02:28:35;;;;;;;1.30;0.20;;;25.10;74.00;;;;;;4995834;28;20021;-74
2021/05/25 02:31:03;;;;;;;2.20;0.30;;;24.70;73.30;;;;;;4994603;28;20038;-73
2021/05/25 02:33:30;;;;;;;0.85;0.20;;;24.90;73.80;;;;;;4996060;28;20038;-74
2021/05/25 02:35:59;;;;;;;1.45;0.25;;;25.20;73.40;;;;;;4996607;28;20140;-73
2021/05/25 02:38:29;;;;;;;1.25;0.20;;;25.10;72.10;;;;;;4996356;28;20124;-74
2021/05/25 02:40:57;;;;;;;1.25;0.20;;;24.90;73.70;;;;;;4992867;28;20060;-74
2021/05/25 02:43:27;;;;;;;0.65;0.13;;;25.30;71.50;;;;;;4998653;28;20038;-73
2021/05/25 02:45:54;;;;;;;0.82;0.13;;;25.00;68.80;;;;;;4990177;28;20097;-72
2021/05/25 02:48:24;;;;;;;0.22;0.20;;;24.70;69.00;;;;;;4992188;28;20026;-73
2021/05/25 02:50:52;;;;;;;0.60;0.32;;;24.60;70.50;;;;;;4995223;28;20043;-72
2021/05/25 02:53:20;;;;;;;0.25;0.10;;;24.90;68.80;;;;;;4994864;28;20042;-73
2021/05/25 02:55:49;;;;;;;4.65;0.28;;;24.60;68.60;;;;;;4998891;28;20030;-74
2021/05/25 02:58:17;;;;;;;0.60;0.20;;;24.60;72.00;;;;;;5002727;28;20552;-75
2021/05/25 03:00:47;;;;;;;1.35;0.20;;;25.00;69.90;;;;;;4998845;28;20030;-74
2021/05/25 03:03:15;;;;;;;0.70;0.40;;;25.30;69.10;;;;;;4998044;28;20026;-73
2021/05/25 03:05:43;;;;;;;0.90;0.30;;;25.50;68.60;;;;;;4998473;28;20037;-73
2021/05/25 03:08:12;;;;;;;0.17;0.10;;;25.00;68.20;;;;;;5000913;28;20034;-73
2021/05/25 03:10:43;;;;;;;0.82;0.20;;;24.90;69.10;;;;;;4994943;28;20018;-73
2021/05/25 03:13:10;;;;;;;0.90;0.10;;;24.90;67.00;;;;;;4999649;28;20073;-74
2021/05/25 03:15:41;;;;;;;1.92;0.32;;;24.70;67.60;;;;;;4995740;28;20026;-73
2021/05/25 03:18:09;;;;;;;1.30;0.57;;;24.40;68.60;;;;;;4998798;28;20030;-74
2021/05/25 03:20:38;;;;;;;0.32;0.10;;;24.50;69.10;;;;;;4995184;28;20026;-74
2021/05/25 03:23:07;;;;;;;0.50;0.38;;;24.30;69.70;;;;;;5001050;28;20473;-72
2021/05/25 03:25:35;;;;;;;0.30;0.10;;;24.50;68.80;;;;;;4994261;28;20022;-73
2021/05/25 03:28:04;;;;;;;1.35;0.05;;;24.60;67.90;;;;;;4997925;28;20030;-72
2021/05/25 03:30:31;;;;;;;1.73;0.25;;;24.30;68.40;;;;;;4990214;28;20105;-73
2021/05/25 03:32:59;;;;;;;0.10;0.10;;;23.90;69.10;;;;;;4995474;28;20037;-72
2021/05/25 03:35:28;;;;;;;1.65;0.35;;;23.90;71.20;;;;;;4993437;28;20076;-71
2021/05/25 03:37:56;;;;;;;1.10;0.80;;;23.70;72.10;;;;;;4992882;28;20041;-74
2021/05/25 03:40:24;;;;;;;0.38;0.00;;;23.50;71.60;;;;;;4987123;28;20122;-73
2021/05/25 03:42:54;;;;;;;0.30;0.10;;;23.00;71.10;;;;;;4998359;28;20080;-73
2021/05/25 03:45:23;;;;;;;1.42;0.20;;;22.80;71.20;;;;;;4992398;28;20030;-73
2021/05/25 03:47:51;;;;;;;0.52;0.20;;;22.70;74.10;;;;;;4994561;28;20041;-71
2021/05/25 03:50:20;;;;;;;0.55;0.10;;;22.60;73.40;;;;;;4994451;28;20511;-72
2021/05/25 03:52:50;;;;;;;0.63;0.10;;;22.50;74.30;;;;;;4995023;28;20033;-73
2021/05/25 04:00:34;;;;;;;1.65;0.10;;;22.20;76.00;;;;;;4994539;28;20482;-72
2021/05/25 04:03:02;;;;;;;1.05;0.10;;;22.10;75.60;;;;;;4997634;28;20033;-71
2021/05/25 04:05:29;;;;;;;2.90;0.20;;;22.10;75.80;;;;;;4989010;28;20030;-73
2021/05/25 04:07:57;;;;;;;0.00;0.00;;;21.90;76.60;;;;;;4999301;28;20109;-71
2021/05/25 04:10:24;;;;;;;1.33;0.10;;;22.00;75.60;;;;;;4992418;28;20468;-72
2021/05/25 04:12:52;;;;;;;1.25;0.10;;;22.00;74.80;;;;;;4994279;28;20754;-71
2021/05/25 04:15:20;;;;;;;0.25;0.20;;;22.00;76.30;;;;;;4989741;28;20128;-70
2021/05/25 04:17:47;;;;;;;2.10;0.75;;;21.90;75.90;;;;;;4994850;28;20037;-70
2021/05/25 04:20:15;;;;;;;0.57;0.20;;;21.80;76.40;;;;;;4991301;28;20160;-71
2021/05/25 04:22:42;;;;;;;0.45;0.20;;;21.80;77.00;;;;;;4992197;28;20087;-70
2021/05/25 04:25:10;;;;;;;0.17;0.10;;;21.80;76.60;;;;;;4988979;28;20049;-72
2021/05/25 04:27:38;;;;;;;0.43;0.10;;;21.80;76.50;;;;;;4996552;28;20046;-71
2021/05/25 04:30:07;;;;;;;0.60;0.10;;;21.80;76.20;;;;;;4993446;28;20029;-71
2021/05/25 04:32:35;;;;;;;0.35;0.05;;;21.80;76.40;;;;;;5000093;28;20084;-71
2021/05/25 04:35:03;;;;;;;0.40;0.10;;;21.90;76.80;;;;;;4992626;28;20117;-71
2021/05/25 04:37:31;;;;;;;0.20;0.10;;;21.90;76.10;;;;;;4989673;28;20033;-71
2021/05/25 04:39:59;;;;;;;1.35;0.10;;;21.90;76.40;;;;;;4995063;28;20404;-71
2021/05/25 04:42:26;;;;;;;0.15;0.10;;;21.80;76.80;;;;;;4991912;28;20033;-71
2021/05/25 04:44:53;;;;;;;0.10;0.10;;;21.90;77.20;;;;;;4993587;28;20084;-71
2021/05/25 04:47:21;;;;;;;1.23;0.15;;;21.90;77.40;;;;;;5001432;28;20025;-72
2021/05/25 04:49:48;;;;;;;0.93;0.20;;;21.80;77.50;;;;;;4993173;28;20042;-71
2021/05/25 04:52:16;;;;;;;0.50;0.20;;;21.80;77.90;;;;;;4994633;28;20073;-71
2021/05/25 04:54:45;;;;;;;1.95;0.10;;;21.90;77.00;;;;;;4992332;28;20495;-71
2021/05/25 04:57:12;;;;;;;0.95;0.32;;;22.00;77.00;;;;;;4993067;28;20377;-71
2021/05/25 04:59:40;;;;;;;1.33;0.20;;;22.00;77.20;;;;;;4993730;28;20027;-71
2021/05/25 05:02:07;;;;;;;0.88;0.68;;;22.00;77.80;;;;;;4995602;28;20018;-70
2021/05/25 05:04:34;;;;;;;0.50;0.13;;;22.10;78.00;;;;;;4989550;28;20022;-70
2021/05/25 05:07:02;;;;;;;0.57;0.20;;;22.10;78.10;;;;;;4992765;28;20038;-70
2021/05/25 05:09:29;;;;;;;2.10;0.30;;;22.00;77.50;;;;;;4995559;28;20032;-71
2021/05/25 05:11:56;;;;;;;1.50;0.10;;;22.00;78.30;;;;;;4992904;28;20089;-72
2021/05/25 05:14:24;;;;;;;0.82;0.20;;;21.90;78.00;;;;;;4991797;28;20077;-71
2021/05/25 05:16:51;;;;;;;0.32;0.20;;;21.90;78.40;;;;;;4989956;28;20045;-71
2021/05/25 05:19:19;;;;;;;0.43;0.13;;;21.90;77.90;;;;;;4990876;28;20366;-72
2021/05/25 05:21:46;;;;;;;2.70;0.20;;;21.90;78.30;;;;;;4998550;28;20030;-71
2021/05/25 05:24:14;;;;;;;0.88;0.40;;;21.80;78.50;;;;;;5002908;28;20026;-72
2021/05/25 05:26:41;;;;;;;0.20;0.15;;;21.80;78.20;;;;;;4997985;28;20038;-71
2021/05/25 05:29:09;;;;;;;0.50;0.20;;;21.70;78.80;;;;;;4997305;28;20478;-71
2021/05/25 05:31:36;;;;;;;0.85;0.20;;;21.60;78.60;;;;;;4998696;28;20105;-74
2021/05/25 05:34:04;;;;;;;1.08;0.22;;;21.60;79.00;;;;;;4994860;28;20035;-72
2021/05/25 05:36:31;;;;;;;0.17;0.10;;;21.60;79.40;;;;;;5001077;28;20556;-72
2021/05/25 05:38:59;;;;;;;22.98;4.03;;;21.70;77.90;;;;;;4998743;28;20110;-72
2021/05/25 05:41:26;;;;;;;0.43;0.08;;;21.70;79.60;;;;;;4997312;28;20034;-71
2021/05/25 05:43:54;;;;;;;1.00;0.22;;;21.70;78.00;;;;;;4998272;28;20062;-71
2021/05/25 05:46:24;;;;;;;1.38;0.17;;;21.60;78.40;;;;;;4993987;28;20022;-71
2021/05/25 05:48:52;;;;;;;3.80;0.20;;;21.50;78.50;;;;;;4999103;28;20023;-73
2021/05/25 05:51:20;;;;;;;1.58;0.20;;;21.60;78.40;;;;;;5000707;28;20290;-73
2021/05/25 05:53:47;;;;;;;0.30;0.10;;;21.60;79.10;;;;;;5005759;28;20374;-73
2021/05/25 05:56:17;;;;;;;0.10;0.03;;;21.60;79.40;;;;;;5000327;28;20053;-73
2021/05/25 05:58:45;;;;;;;1.17;0.20;;;21.60;79.10;;;;;;5004153;28;20477;-73
2021/05/25 06:01:13;;;;;;;0.63;0.28;;;21.70;79.30;;;;;;4988799;28;20034;-73
2021/05/25 06:03:41;;;;;;;1.30;0.10;;;21.60;79.70;;;;;;4997307;28;20065;-73
2021/05/25 06:06:08;;;;;;;0.75;0.28;;;21.60;78.70;;;;;;4986010;28;20465;-73
2021/05/25 06:08:36;;;;;;;1.38;0.43;;;21.60;79.50;;;;;;4994163;28;20080;-73
2021/05/25 06:11:04;;;;;;;0.43;0.20;;;21.70;79.50;;;;;;4996550;28;20025;-72
2021/05/25 06:13:31;;;;;;;1.20;0.20;;;21.80;78.70;;;;;;4993285;28;20036;-72
2021/05/25 06:16:02;;;;;;;0.20;0.10;;;21.80;79.70;;;;;;4996239;28;20026;-71
2021/05/25 06:18:31;;;;;;;1.10;0.75;;;21.80;79.40;;;;;;5000133;28;20389;-71
2021/05/25 06:21:00;;;;;;;0.73;0.13;;;21.60;79.70;;;;;;4997388;28;20102;-72
2021/05/25 06:23:28;;;;;;;0.55;0.20;;;21.60;79.70;;;;;;5000333;28;20036;-71
2021/05/25 06:25:56;;;;;;;0.10;0.10;;;21.50;80.20;;;;;;4998419;28;20124;-72
2021/05/25 06:28:24;;;;;;;1.48;0.50;;;21.30;80.50;;;;;;5000410;28;20044;-71
2021/05/25 06:30:51;;;;;;;0.28;0.10;;;21.30;81.70;;;;;;5001387;28;20022;-72
2021/05/25 06:33:19;;;;;;;0.50;0.20;;;21.20;81.30;;;;;;4998037;28;20045;-74
2021/05/25 06:35:46;;;;;;;0.28;0.20;;;21.10;81.50;;;;;;4989712;28;20019;-74
2021/05/25 06:38:14;;;;;;;1.80;0.20;;;20.90;82.30;;;;;;4994312;28;20041;-73
2021/05/25 06:40:41;;;;;;;1.65;0.80;;;20.80;82.50;;;;;;4998485;28;20084;-74
2021/05/25 06:43:09;;;;;;;0.70;0.20;;;20.70;82.60;;;;;;5001039;28;20401;-74
2021/05/25 06:45:36;;;;;;;0.45;0.40;;;20.50;82.70;;;;;;4998950;28;20404;-75
2021/05/25 06:48:04;;;;;;;0.60;0.30;;;20.40;84.10;;;;;;4995239;28;20034;-73
2021/05/25 06:50:32;;;;;;;1.05;0.40;;;20.30;85.00;;;;;;4987885;28;20104;-73
2021/05/25 06:53:00;;;;;;;1.80;0.70;;;20.10;85.50;;;;;;4997241;28;20506;-73
2021/05/25 06:55:27;;;;;;;3.58;0.30;;;20.00;86.20;;;;;;4990460;28;20473;-75
2021/05/25 06:57:55;;;;;;;6.70;1.58;;;19.90;86.00;;;;;;4991024;28;20061;-74
2021/05/25 07:00:22;;;;;;;32.40;3.53;;;19.90;86.70;;;;;;4987023;28;20041;-73
2021/05/25 07:02:50;;;;;;;30.83;5.20;;;19.90;87.60;;;;;;4994246;28;20535;-74
2021/05/25 07:05:17;;;;;;;10.48;2.78;;;19.80;87.30;;;;;;4992482;28;20034;-73
2021/05/25 07:07:45;;;;;;;2.70;0.73;;;19.70;88.30;;;;;;4996113;28;20027;-74
2021/05/25 07:10:12;;;;;;;5.88;1.15;;;19.60;89.20;;;;;;4993898;28;20038;-75
2021/05/25 07:12:40;;;;;;;9.77;1.50;;;19.50;88.70;;;;;;4992924;28;20042;-73
2021/05/25 07:15:08;;;;;;;4.38;0.90;;;19.40;89.10;;;;;;4995266;28;20034;-75
2021/05/25 07:17:35;;;;;;;5.95;1.27;;;19.30;89.50;;;;;;5005354;28;20049;-75
2021/05/25 07:20:04;;;;;;;4.32;1.48;;;19.40;89.20;;;;;;4996538;28;20030;-73
2021/05/25 07:22:38;;;;;;;4.53;1.00;;;19.40;88.60;;;;;;5008063;28;20058;-82
2021/05/25 07:25:06;;;;;;;6.32;0.93;;;19.30;89.20;;;;;;4996088;28;20042;-81
2021/05/25 07:27:35;;;;;;;1.40;0.68;;;19.20;89.40;;;;;;5003025;28;20453;-77
2021/05/25 07:30:06;;;;;;;2.92;1.50;;;19.20;89.80;;;;;;4993720;28;20041;-77
2021/05/25 07:32:34;;;;;;;1.48;0.47;;;19.10;90.00;;;;;;4994500;28;20065;-78
2021/05/25 07:35:05;;;;;;;1.40;0.40;;;19.00;90.10;;;;;;4992706;28;20030;-78
2021/05/25 07:37:34;;;;;;;2.25;0.40;;;19.00;90.30;;;;;;5002290;28;20026;-77
2021/05/25 07:40:02;;;;;;;1.35;0.60;;;18.90;90.50;;;;;;4992754;28;20029;-78
2021/05/25 07:42:30;;;;;;;2.60;1.80;;;18.80;90.60;;;;;;4996916;28;20101;-79
2021/05/25 07:44:58;;;;;;;4.45;1.38;;;18.70;90.80;;;;;;5006276;28;20022;-85
2021/05/25 07:47:29;;;;;;;3.83;1.45;;;18.70;91.10;;;;;;4996826;28;20125;-82
2021/05/25 07:49:57;;;;;;;3.28;1.90;;;18.60;91.40;;;;;;4992539;28;20047;-80
2021/05/25 07:52:24;;;;;;;4.07;1.65;;;18.60;91.60;;;;;;4998229;28;20038;-79
2021/05/25 07:54:52;;;;;;;2.70;0.85;;;18.50;91.80;;;;;;5000599;28;20536;-80
2021/05/25 07:57:19;;;;;;;1.73;0.80;;;18.50;92.00;;;;;;5000460;28;20025;-80
2021/05/25 07:59:46;;;;;;;2.10;0.80;;;18.50;92.10;;;;;;4992241;28;20058;-79
2021/05/25 08:02:14;;;;;;;1.00;0.60;;;18.50;92.30;;;;;;4997151;28;20034;-79
2021/05/25 08:04:41;;;;;;;3.85;0.60;;;18.50;92.40;;;;;;4999906;28;20153;-80
2021/05/25 08:07:08;;;;;;;2.05;0.50;;;18.40;92.60;;;;;;4997214;28;20481;-78
2021/05/25 08:09:36;;;;;;;2.05;1.15;;;18.30;92.70;;;;;;5000603;28;20038;-80
2021/05/25 08:12:03;;;;;;;2.78;1.17;;;18.30;92.90;;;;;;5000096;28;20045;-80
2021/05/25 08:14:30;;;;;;;2.55;1.08;;;18.20;92.90;;;;;;4998424;28;20088;-79
2021/05/25 08:17:07;;;;;;;4.28;1.17;;;18.10;93.10;;;;;;4998487;28;20093;-79
2021/05/25 08:19:35;;;;;;;1.23;0.80;;;18.10;93.30;;;;;;4996121;28;20026;-77
2021/05/25 08:22:03;;;;;;;0.77;0.40;;;18.10;93.50;;;;;;5003886;28;20034;-76
2021/05/25 08:24:30;;;;;;;1.20;0.43;;;18.10;93.60;;;;;;4991741;28;20030;-79
2021/05/25 08:26:57;;;;;;;1.73;1.02;;;18.00;93.70;;;;;;4995282;28;20080;-78
2021/05/25 08:29:25;;;;;;;2.15;0.93;;;17.90;93.90;;;;;;4996817;28;20501;-77
2021/05/25 08:31:52;;;;;;;1.60;0.70;;;17.90;94.00;;;;;;4996428;28;20496;-77
2021/05/25 08:34:23;;;;;;;1.17;0.68;;;17.90;94.20;;;;;;4994982;28;20054;-77
2021/05/25 08:36:51;;;;;;;2.13;0.82;;;17.80;94.50;;;;;;4992891;28;20029;-77
2021/05/25 08:39:19;;;;;;;4.07;0.65;;;17.60;94.70;;;;;;4995190;28;20023;-77
2021/05/25 08:41:46;;;;;;;0.50;0.50;;;17.60;94.80;;;;;;4995063;28;20026;-78
2021/05/25 08:44:13;;;;;;;1.73;0.65;;;17.60;95.00;;;;;;4990454;28;20109;-79
2021/05/25 08:46:47;;;;;;;3.67;1.05;;;17.50;95.10;;;;;;5003464;28;20026;-78
2021/05/25 08:49:16;;;;;;;1.83;1.00;;;17.40;95.30;;;;;;4992979;28;20343;-78
2021/05/25 08:51:44;;;;;;;1.95;1.20;;;17.30;95.70;;;;;;4991644;28;20064;-80
2021/05/25 08:54:13;;;;;;;3.20;0.93;;;17.20;95.70;;;;;;4997968;28;20042;-81
2021/05/25 08:56:40;;;;;;;1.48;0.85;;;17.10;95.80;;;;;;4993529;28;20504;-80
2021/05/25 08:59:08;;;;;;;2.92;1.02;;;17.00;96.10;;;;;;5004872;28;20025;-80
2021/05/25 09:01:37;;;;;;;4.25;0.75;;;16.90;96.20;;;;;;5004680;28;20026;-81
2021/05/25 09:04:07;;;;;;;3.63;1.42;;;16.90;96.30;;;;;;5003213;28;20044;-81
2021/05/25 09:06:46;;;;;;;3.38;1.02;;;16.80;96.40;;;;;;5001189;28;20045;-78
2021/05/25 09:09:20;;;;;;;1.55;0.85;;;16.70;96.60;;;;;;4999907;28;20033;-80
2021/05/25 09:12:02;;;;;;;1.90;1.10;;;16.50;97.00;;;;;;4996648;28;20106;-79
2021/05/25 09:14:35;;;;;;;1.70;1.10;;;16.40;97.30;;;;;;5000160;28;20038;-78
2021/05/25 09:17:27;;;;;;;3.25;1.27;;;16.30;97.50;;;;;;5003611;28;20049;-79
2021/05/25 09:19:56;;;;;;;2.45;1.48;;;16.20;97.80;;;;;;4998533;28;20052;-78
2021/05/25 09:22:28;;;;;;;1.60;1.25;;;16.10;97.90;;;;;;4999112;28;20053;-81
2021/05/25 09:24:57;;;;;;;1.80;1.30;;;16.10;98.10;;;;;;5002565;28;20035;-79
2021/05/25 09:27:41;;;;;;;1.73;0.90;;;16.10;98.00;;;;;;5002137;28;20082;-79
2021/05/25 09:30:13;;;;;;;3.97;1.23;;;16.10;98.00;;;;;;5013173;28;20469;-80
2021/05/25 09:32:57;;;;;;;2.03;1.15;;;16.10;98.00;;;;;;5009797;28;20057;-79
2021/05/25 09:35:28;;;;;;;5.57;1.52;;;16.10;98.00;;;;;;4995711;28;20132;-79
2021/05/25 09:37:57;;;;;;;2.25;1.40;;;16.00;98.20;;;;;;5000175;28;20061;-81
2021/05/25 09:40:30;;;;;;;2.80;1.10;;;16.00;98.20;;;;;;4999115;28;20057;-80
2021/05/25 09:43:14;;;;;;;2.10;1.13;;;16.10;98.30;;;;;;5005957;28;20132;-80
2021/05/25 09:45:57;;;;;;;2.03;1.63;;;16.00;98.20;;;;;;5011735;28;20075;-78
2021/05/25 09:48:26;;;;;;;2.85;1.88;;;15.90;98.30;;;;;;4999395;28;20035;-78
2021/05/25 09:50:54;;;;;;;2.20;1.58;;;15.90;98.40;;;;;;5002820;28;20050;-78
2021/05/25 09:53:24;;;;;;;2.88;1.30;;;15.80;98.40;;;;;;5007469;28;20038;-78
2021/05/25 09:55:56;;;;;;;3.58;1.77;;;15.70;98.50;;;;;;5002254;28;20023;-79
2021/05/25 09:58:34;;;;;;;3.03;1.50;;;15.60;98.40;;;;;;4999738;28;20420;-78
2021/05/25 10:01:07;;;;;;;5.15;1.85;;;15.50;98.50;;;;;;4997193;28;20054;-81
2021/05/25 10:03:53;;;;;;;7.10;2.33;;;15.50;99.00;;;;;;4997789;28;20026;-80
2021/05/25 10:06:21;;;;;;;3.55;1.70;;;15.40;98.80;;;;;;5003394;28;20121;-80
2021/05/25 10:08:49;;;;;;;2.65;1.55;;;15.40;99.10;;;;;;5001752;28;20052;-79
2021/05/25 10:11:19;;;;;;;6.97;2.78;;;15.30;99.20;;;;;;5003854;28;20018;-80
2021/05/25 10:13:47;;;;;;;9.40;4.47;;;15.30;99.30;;;;;;4990904;28;20050;-78
2021/05/25 10:16:16;;;;;;;8.15;5.07;;;15.20;99.00;;;;;;4999400;28;20015;-81
2021/05/25 10:21:13;;;;;;;11.85;5.22;;;15.20;99.10;;;;;;5003248;28;20381;-82
2021/05/25 10:23:43;;;;;;;8.90;4.65;;;15.10;99.00;;;;;;4999513;28;20038;-79
2021/05/25 10:26:24;;;;;;;8.68;4.38;;;15.00;99.10;;;;;;5005405;28;20022;-79
2021/05/25 10:28:53;;;;;;;6.88;4.03;;;14.90;99.10;;;;;;4999536;28;20544;-81
2021/05/25 10:31:37;;;;;;;6.40;2.78;;;14.70;99.30;;;;;;4995820;28;20022;-80
2021/05/25 10:34:17;;;;;;;6.82;3.25;;;14.70;99.50;;;;;;4993410;28;20156;-78
2021/05/25 10:36:59;;;;;;;4.05;2.80;;;14.60;99.60;;;;;;4998781;28;20021;-79
2021/05/25 10:39:30;;;;;;;5.32;3.33;;;14.60;99.60;;;;;;4985084;28;20500;-85
2021/05/25 10:42:22;;;;;;;5.55;3.20;;;14.50;99.70;;;;;;5005490;28;20027;-79
2021/05/25 10:45:04;;;;;;;6.57;3.13;;;14.50;99.90;;;;;;4995472;28;20027;-79
2021/05/25 10:47:38;;;;;;;5.75;2.97;;;14.50;99.90;;;;;;5002261;28;20370;-81
2021/05/25 10:53:03;;;;;;;7.30;5.32;;;14.50;99.90;;;;;;4999404;28;20034;-80
2021/05/25 10:55:32;;;;;;;10.68;6.15;;;14.40;99.90;;;;;;4989010;28;20043;-78
2021/05/25 10:58:02;;;;;;;9.55;6.25;;;14.30;99.90;;;;;;5002458;28;20022;-78
2021/05/25 11:00:42;;;;;;;7.05;4.78;;;14.30;99.90;;;;;;5001613;28;20050;-78
2021/05/25 11:03:13;;;;;;;8.02;4.15;;;14.30;99.90;;;;;;5002885;28;20034;-79
2021/05/25 11:05:45;;;;;;;5.63;3.88;;;14.10;99.90;;;;;;5006681;28;20026;-78
2021/05/25 11:08:17;;;;;;;5.70;3.80;;;14.10;99.90;;;;;;4994405;28;20033;-79
2021/05/25 11:10:57;;;;;;;6.20;4.40;;;14.00;99.90;;;;;;4998594;28;20306;-80
2021/05/25 11:13:26;;;;;;;4.18;2.90;;;13.90;99.90;;;;;;4996932;28;20045;-78
2021/05/25 11:16:16;;;;;;;4.60;2.67;;;14.00;99.90;;;;;;4995498;28;20547;-78
2021/05/25 11:24:35;;;;;;;5.25;3.33;;;14.00;99.90;;;;;;5002349;28;20042;-79
2021/05/25 11:27:09;;;;;;;3.28;2.63;;;14.00;99.90;;;;;;4994706;28;20198;-79
2021/05/25 11:29:51;;;;;;;2.92;1.98;;;14.10;99.90;;;;;;4998159;28;20057;-80
2021/05/25 11:32:24;;;;;;;3.58;2.03;;;14.10;99.90;;;;;;4996011;28;20477;-79
2021/05/25 11:35:00;;;;;;;2.67;1.67;;;14.20;99.90;;;;;;5003606;28;20028;-80
2021/05/25 11:37:32;;;;;;;4.13;1.55;;;14.30;99.90;;;;;;5003346;28;20110;-80
2021/05/25 11:40:00;;;;;;;2.20;1.20;;;14.40;99.90;;;;;;4999848;28;20058;-82
2021/05/25 11:42:33;;;;;;;2.70;1.40;;;14.30;99.90;;;;;;4999301;28;20030;-81
2021/05/25 11:45:01;;;;;;;3.70;1.10;;;14.30;99.90;;;;;;5000896;28;20037;-78
2021/05/25 11:47:28;;;;;;;1.58;1.10;;;14.40;99.90;;;;;;5002012;28;20058;-80
2021/05/25 11:49:56;;;;;;;3.03;1.33;;;14.50;99.90;;;;;;4996249;28;20070;-79
2021/05/25 11:52:27;;;;;;;1.70;0.93;;;14.70;99.90;;;;;;4994692;28;20091;-77
2021/05/25 11:55:03;;;;;;;1.67;1.08;;;14.70;99.90;;;;;;5000992;28;20042;-77
2021/05/25 11:57:43;;;;;;;1.50;0.70;;;14.90;99.90;;;;;;4992737;28;20033;-79
2021/05/25 12:00:13;;;;;;;1.73;0.73;;;15.00;99.60;;;;;;4993546;28;20481;-79
2021/05/25 12:02:42;;;;;;;1.38;0.80;;;15.10;99.40;;;;;;4994775;28;20088;-78
2021/05/25 12:05:13;;;;;;;1.90;0.70;;;15.20;99.10;;;;;;4998625;28;20026;-81
2021/05/25 12:07:44;;;;;;;1.67;0.88;;;15.30;98.90;;;;;;4996081;28;20034;-75
2021/05/25 12:10:16;;;;;;;3.20;1.60;;;15.40;98.70;;;;;;4997778;28;20030;-76
2021/05/25 12:12:45;;;;;;;6.22;2.63;;;15.40;98.50;;;;;;4994193;28;20049;-76
2021/05/25 12:15:24;;;;;;;7.47;2.65;;;15.50;98.20;;;;;;4994725;28;20062;-76
2021/05/25 12:18:07;;;;;;;3.35;2.00;;;15.60;98.10;;;;;;4993687;28;20053;-79
2021/05/25 12:20:52;;;;;;;5.20;2.45;;;15.60;98.00;;;;;;4998076;28;20034;-77
2021/05/25 12:23:26;;;;;;;4.50;2.33;;;15.50;98.00;;;;;;4998550;28;20057;-78
2021/05/25 12:25:54;;;;;;;4.60;2.45;;;15.50;98.00;;;;;;4999016;28;20038;-76
2021/05/25 12:28:23;;;;;;;3.45;1.48;;;15.50;98.00;;;;;;5014161;28;20038;-76
2021/05/25 12:30:54;;;;;;;0.93;0.90;;;15.50;97.80;;;;;;4999681;28;20037;-77
2021/05/25 12:33:30;;;;;;;2.72;0.95;;;15.60;97.80;;;;;;5000833;28;20100;-80
2021/05/25 12:36:21;;;;;;;4.00;1.40;;;15.50;97.80;;;;;;5001545;28;20076;-79
2021/05/25 12:39:01;;;;;;;6.25;2.30;;;15.50;97.90;;;;;;4996980;28;20049;-79
2021/05/25 12:41:42;;;;;;;3.03;1.42;;;15.40;98.00;;;;;;4996375;28;20041;-81
2021/05/25 12:44:10;;;;;;;4.03;1.00;;;15.40;98.10;;;;;;4995600;28;20026;-78
2021/05/25 12:46:56;;;;;;;3.05;1.50;;;15.30;98.20;;;;;;4999096;28;20030;-77
2021/05/25 12:49:27;;;;;;;;;;;15.20;98.20;;;;;;4999624;28;20564;-78
2021/05/25 12:52:14;;;;;;;6.15;2.75;;;15.20;98.20;;;;;;5001394;28;19914;-80
2021/05/25 12:54:52;;;;;;;4.85;1.92;;;15.20;98.20;;;;;;5003078;28;20072;-79
2021/05/25 12:57:19;;;;;;;5.50;1.63;;;15.20;98.30;;;;;;4997294;28;20481;-78
2021/05/25 12:59:57;;;;;;;2.90;1.65;;;15.10;98.30;;;;;;4994554;28;20041;-79
2021/05/25 13:02:38;;;;;;;4.05;2.08;;;15.10;98.50;;;;;;4995722;28;20034;-80
2021/05/25 13:05:11;;;;;;;6.07;2.50;;;15.00;98.50;;;;;;4993205;28;20026;-79
2021/05/25 13:07:52;;;;;;;3.40;1.45;;;14.90;98.70;;;;;;4994652;28;20033;-77
2021/05/25 13:10:33;;;;;;;2.53;1.50;;;14.90;98.90;;;;;;4991855;28;20056;-78
2021/05/25 13:13:19;;;;;;;3.58;1.00;;;14.80;98.90;;;;;;5000750;28;20034;-76
2021/05/25 13:15:51;;;;;;;5.28;1.13;;;14.80;99.10;;;;;;4999852;28;20033;-79
2021/05/25 13:18:21;;;;;;;1.85;0.90;;;14.90;99.10;;;;;;4997532;28;20039;-80